sensor_id;sensor_type;location;lat;lon;timestamp;P1;durP1;ratioP1;P2;durP2;ratioP2
59824;SDS011;45703;50.898;6.054;2022-10-16T00:00:31;4.43;;;1.10;;
59824;SDS011;45703;50.898;6.054;2022-10-16T00:02:56;7.28;;;1.70;;
59824;SDS011;45703;50.898;6.054;2022-10-16T00:05:21;5.10;;;1.40;;
59824;SDS011;45703;50.898;6.054;2022-10-16T00:07:47;4.93;;;1.30;;
59824;SDS011;45703;50.898;6.054;2022-10-16T00:10:12;6.25;;;1.30;;
59824;SDS011;45703;50.898;6.054;2022-10-16T00:12:38;5.35;;;1.40;;
59824;SDS011;45703;50.898;6.054;2022-10-16T00:15:03;5.47;;;1.35;;
59824;SDS011;45703;50.898;6.054;2022-10-16T00:17:30;4.22;;;1.15;;
59824;SDS011;45703;50.898;6.054;2022-10-16T00:19:55;5.57;;;1.40;;
59824;SDS011;45703;50.898;6.054;2022-10-16T00:22:21;5.70;;;1.83;;
59824;SDS011;45703;50.898;6.054;2022-10-16T00:24:47;4.07;;;1.23;;
59824;SDS011;45703;50.898;6.054;2022-10-16T00:27:12;6.35;;;1.58;;
59824;SDS011;45703;50.898;6.054;2022-10-16T00:29:37;4.93;;;1.40;;
59824;SDS011;45703;50.898;6.054;2022-10-16T00:32:03;4.55;;;1.52;;
59824;SDS011;45703;50.898;6.054;2022-10-16T00:34:28;5.25;;;1.60;;
59824;SDS011;45703;50.898;6.054;2022-10-16T00:36:54;5.30;;;1.70;;
59824;SDS011;45703;50.898;6.054;2022-10-16T00:39:19;5.72;;;1.40;;
59824;SDS011;45703;50.898;6.054;2022-10-16T00:41:44;5.05;;;1.52;;
59824;SDS011;45703;50.898;6.054;2022-10-16T00:47:08;5.38;;;1.60;;
59824;SDS011;45703;50.898;6.054;2022-10-16T00:49:36;4.68;;;1.58;;
59824;SDS011;45703;50.898;6.054;2022-10-16T00:52:01;4.70;;;1.40;;
59824;SDS011;45703;50.898;6.054;2022-10-16T00:54:28;4.80;;;1.52;;
59824;SDS011;45703;50.898;6.054;2022-10-16T00:56:56;4.20;;;1.23;;
59824;SDS011;45703;50.898;6.054;2022-10-16T00:59:27;5.50;;;1.40;;
59824;SDS011;45703;50.898;6.054;2022-10-16T01:01:57;5.78;;;1.58;;
59824;SDS011;45703;50.898;6.054;2022-10-16T01:04:24;4.22;;;1.33;;
59824;SDS011;45703;50.898;6.054;2022-10-16T01:09:23;5.00;;;1.30;;
59824;SDS011;45703;50.898;6.054;2022-10-16T01:14:26;5.53;;;1.38;;
59824;SDS011;45703;50.898;6.054;2022-10-16T01:17:22;5.07;;;1.20;;
59824;SDS011;45703;50.898;6.054;2022-10-16T01:20:04;3.92;;;1.13;;
59824;SDS011;45703;50.898;6.054;2022-10-16T01:22:58;3.95;;;1.20;;
59824;SDS011;45703;50.898;6.054;2022-10-16T01:26:27;4.75;;;1.25;;
59824;SDS011;45703;50.898;6.054;2022-10-16T01:28:30;4.35;;;1.10;;
59824;SDS011;45703;50.898;6.054;2022-10-16T01:31:02;4.00;;;1.13;;
59824;SDS011;45703;50.898;6.054;2022-10-16T01:33:29;3.60;;;1.20;;
59824;SDS011;45703;50.898;6.054;2022-10-16T01:36:02;3.95;;;0.93;;
59824;SDS011;45703;50.898;6.054;2022-10-16T01:38:36;5.28;;;1.00;;
59824;SDS011;45703;50.898;6.054;2022-10-16T01:41:06;4.20;;;1.10;;
59824;SDS011;45703;50.898;6.054;2022-10-16T01:43:37;4.30;;;1.05;;
59824;SDS011;45703;50.898;6.054;2022-10-16T01:46:08;3.00;;;0.90;;
59824;SDS011;45703;50.898;6.054;2022-10-16T01:48:36;4.85;;;1.20;;
59824;SDS011;45703;50.898;6.054;2022-10-16T01:51:14;5.50;;;1.42;;
59824;SDS011;45703;50.898;6.054;2022-10-16T01:53:43;3.27;;;1.10;;
59824;SDS011;45703;50.898;6.054;2022-10-16T01:56:14;5.15;;;1.13;;
59824;SDS011;45703;50.898;6.054;2022-10-16T01:58:45;3.55;;;1.02;;
59824;SDS011;45703;50.898;6.054;2022-10-16T02:01:15;4.78;;;1.30;;
59824;SDS011;45703;50.898;6.054;2022-10-16T02:03:44;4.72;;;1.27;;
59824;SDS011;45703;50.898;6.054;2022-10-16T02:06:15;5.07;;;1.10;;
59824;SDS011;45703;50.898;6.054;2022-10-16T02:08:41;4.63;;;1.00;;
59824;SDS011;45703;50.898;6.054;2022-10-16T02:11:09;4.38;;;1.02;;
59824;SDS011;45703;50.898;6.054;2022-10-16T02:13:48;4.60;;;1.30;;
59824;SDS011;45703;50.898;6.054;2022-10-16T02:16:19;4.45;;;1.20;;
59824;SDS011;45703;50.898;6.054;2022-10-16T02:18:44;5.80;;;1.25;;
59824;SDS011;45703;50.898;6.054;2022-10-16T02:21:13;3.40;;;0.98;;
59824;SDS011;45703;50.898;6.054;2022-10-16T02:24:07;4.72;;;1.10;;
59824;SDS011;45703;50.898;6.054;2022-10-16T02:26:30;5.82;;;1.30;;
59824;SDS011;45703;50.898;6.054;2022-10-16T02:29:10;3.70;;;1.10;;
59824;SDS011;45703;50.898;6.054;2022-10-16T02:31:41;4.77;;;1.33;;
59824;SDS011;45703;50.898;6.054;2022-10-16T02:34:08;4.78;;;1.63;;
59824;SDS011;45703;50.898;6.054;2022-10-16T02:36:36;5.05;;;1.35;;
59824;SDS011;45703;50.898;6.054;2022-10-16T02:39:04;4.03;;;1.10;;
59824;SDS011;45703;50.898;6.054;2022-10-16T02:41:31;3.15;;;1.08;;
59824;SDS011;45703;50.898;6.054;2022-10-16T02:43:57;4.70;;;1.33;;
59824;SDS011;45703;50.898;6.054;2022-10-16T02:46:22;3.80;;;1.10;;
59824;SDS011;45703;50.898;6.054;2022-10-16T02:48:48;4.78;;;1.38;;
59824;SDS011;45703;50.898;6.054;2022-10-16T02:51:13;3.95;;;1.17;;
59824;SDS011;45703;50.898;6.054;2022-10-16T02:53:38;4.40;;;1.30;;
59824;SDS011;45703;50.898;6.054;2022-10-16T02:56:04;3.35;;;0.98;;
59824;SDS011;45703;50.898;6.054;2022-10-16T02:58:29;4.38;;;1.23;;
59824;SDS011;45703;50.898;6.054;2022-10-16T03:00:55;4.63;;;1.08;;
59824;SDS011;45703;50.898;6.054;2022-10-16T03:03:20;5.35;;;1.10;;
59824;SDS011;45703;50.898;6.054;2022-10-16T03:05:46;3.85;;;1.13;;
59824;SDS011;45703;50.898;6.054;2022-10-16T03:08:12;5.78;;;1.10;;
59824;SDS011;45703;50.898;6.054;2022-10-16T03:10:37;4.28;;;1.05;;
59824;SDS011;45703;50.898;6.054;2022-10-16T03:13:03;4.95;;;1.25;;
59824;SDS011;45703;50.898;6.054;2022-10-16T03:15:28;5.00;;;1.40;;
59824;SDS011;45703;50.898;6.054;2022-10-16T03:17:54;3.85;;;1.15;;
59824;SDS011;45703;50.898;6.054;2022-10-16T03:20:19;4.47;;;1.38;;
59824;SDS011;45703;50.898;6.054;2022-10-16T03:22:45;5.40;;;1.50;;
59824;SDS011;45703;50.898;6.054;2022-10-16T03:25:10;4.70;;;1.40;;
59824;SDS011;45703;50.898;6.054;2022-10-16T03:27:35;4.90;;;1.55;;
59824;SDS011;45703;50.898;6.054;2022-10-16T03:30:01;4.82;;;1.30;;
59824;SDS011;45703;50.898;6.054;2022-10-16T03:32:26;5.00;;;1.70;;
59824;SDS011;45703;50.898;6.054;2022-10-16T03:34:53;4.95;;;1.35;;
59824;SDS011;45703;50.898;6.054;2022-10-16T03:37:19;4.88;;;1.40;;
59824;SDS011;45703;50.898;6.054;2022-10-16T03:39:45;4.15;;;1.23;;
59824;SDS011;45703;50.898;6.054;2022-10-16T03:42:10;4.65;;;1.30;;
59824;SDS011;45703;50.898;6.054;2022-10-16T03:44:36;4.78;;;1.40;;
59824;SDS011;45703;50.898;6.054;2022-10-16T03:47:01;4.85;;;1.42;;
59824;SDS011;45703;50.898;6.054;2022-10-16T03:49:26;6.43;;;1.70;;
59824;SDS011;45703;50.898;6.054;2022-10-16T03:51:52;5.65;;;1.77;;
59824;SDS011;45703;50.898;6.054;2022-10-16T03:54:17;6.28;;;1.63;;
59824;SDS011;45703;50.898;6.054;2022-10-16T03:56:42;4.88;;;1.40;;
59824;SDS011;45703;50.898;6.054;2022-10-16T03:59:08;5.45;;;1.80;;
59824;SDS011;45703;50.898;6.054;2022-10-16T04:01:33;6.40;;;1.65;;
59824;SDS011;45703;50.898;6.054;2022-10-16T04:03:58;4.60;;;1.40;;
59824;SDS011;45703;50.898;6.054;2022-10-16T04:06:24;5.65;;;1.65;;
59824;SDS011;45703;50.898;6.054;2022-10-16T04:08:49;7.00;;;1.60;;
59824;SDS011;45703;50.898;6.054;2022-10-16T04:11:14;4.82;;;1.35;;
59824;SDS011;45703;50.898;6.054;2022-10-16T04:13:40;5.57;;;1.50;;
59824;SDS011;45703;50.898;6.054;2022-10-16T04:16:06;6.68;;;1.90;;
59824;SDS011;45703;50.898;6.054;2022-10-16T04:18:32;5.55;;;1.90;;
59824;SDS011;45703;50.898;6.054;2022-10-16T04:21:01;5.30;;;1.65;;
59824;SDS011;45703;50.898;6.054;2022-10-16T04:23:28;6.10;;;1.80;;
59824;SDS011;45703;50.898;6.054;2022-10-16T04:25:53;5.18;;;1.70;;
59824;SDS011;45703;50.898;6.054;2022-10-16T04:28:18;5.43;;;1.88;;
59824;SDS011;45703;50.898;6.054;2022-10-16T04:30:43;4.90;;;1.52;;
59824;SDS011;45703;50.898;6.054;2022-10-16T04:33:09;4.60;;;1.42;;
59824;SDS011;45703;50.898;6.054;2022-10-16T04:35:35;4.38;;;1.23;;
59824;SDS011;45703;50.898;6.054;2022-10-16T04:38:00;5.72;;;1.63;;
59824;SDS011;45703;50.898;6.054;2022-10-16T04:40:25;5.78;;;1.80;;
59824;SDS011;45703;50.898;6.054;2022-10-16T04:42:51;5.22;;;1.67;;
59824;SDS011;45703;50.898;6.054;2022-10-16T04:45:16;4.75;;;1.52;;
59824;SDS011;45703;50.898;6.054;2022-10-16T04:47:41;4.75;;;1.55;;
59824;SDS011;45703;50.898;6.054;2022-10-16T04:50:07;4.70;;;1.58;;
59824;SDS011;45703;50.898;6.054;2022-10-16T04:52:33;5.75;;;1.63;;
59824;SDS011;45703;50.898;6.054;2022-10-16T04:54:58;9.00;;;2.10;;
59824;SDS011;45703;50.898;6.054;2022-10-16T04:57:26;6.00;;;1.80;;
59824;SDS011;45703;50.898;6.054;2022-10-16T04:59:52;5.47;;;1.60;;
59824;SDS011;45703;50.898;6.054;2022-10-16T05:02:18;5.45;;;1.73;;
59824;SDS011;45703;50.898;6.054;2022-10-16T05:04:43;4.82;;;1.58;;
59824;SDS011;45703;50.898;6.054;2022-10-16T05:07:09;4.75;;;1.60;;
59824;SDS011;45703;50.898;6.054;2022-10-16T05:09:34;4.95;;;1.77;;
59824;SDS011;45703;50.898;6.054;2022-10-16T05:11:59;4.85;;;1.60;;
59824;SDS011;45703;50.898;6.054;2022-10-16T05:14:25;4.97;;;1.67;;
59824;SDS011;45703;50.898;6.054;2022-10-16T05:16:50;4.85;;;1.42;;
59824;SDS011;45703;50.898;6.054;2022-10-16T05:19:16;5.45;;;1.73;;
59824;SDS011;45703;50.898;6.054;2022-10-16T05:21:42;4.75;;;1.50;;
59824;SDS011;45703;50.898;6.054;2022-10-16T05:24:07;4.90;;;1.60;;
59824;SDS011;45703;50.898;6.054;2022-10-16T05:26:32;5.47;;;2.00;;
59824;SDS011;45703;50.898;6.054;2022-10-16T05:28:58;5.90;;;1.55;;
59824;SDS011;45703;50.898;6.054;2022-10-16T05:31:23;4.95;;;1.65;;
59824;SDS011;45703;50.898;6.054;2022-10-16T05:33:48;4.90;;;1.50;;
59824;SDS011;45703;50.898;6.054;2022-10-16T05:36:14;6.25;;;1.95;;
59824;SDS011;45703;50.898;6.054;2022-10-16T05:38:39;4.63;;;1.33;;
59824;SDS011;45703;50.898;6.054;2022-10-16T05:41:05;5.03;;;1.45;;
59824;SDS011;45703;50.898;6.054;2022-10-16T05:43:31;4.95;;;1.58;;
59824;SDS011;45703;50.898;6.054;2022-10-16T05:45:57;5.63;;;1.80;;
59824;SDS011;45703;50.898;6.054;2022-10-16T05:48:24;4.90;;;1.70;;
59824;SDS011;45703;50.898;6.054;2022-10-16T05:51:00;4.78;;;1.52;;
59824;SDS011;45703;50.898;6.054;2022-10-16T05:53:28;4.30;;;1.30;;
59824;SDS011;45703;50.898;6.054;2022-10-16T05:55:55;5.20;;;1.75;;
59824;SDS011;45703;50.898;6.054;2022-10-16T05:58:21;4.68;;;1.50;;
59824;SDS011;45703;50.898;6.054;2022-10-16T06:00:57;5.53;;;1.40;;
59824;SDS011;45703;50.898;6.054;2022-10-16T06:03:27;5.22;;;1.83;;
59824;SDS011;45703;50.898;6.054;2022-10-16T06:05:52;6.28;;;1.65;;
59824;SDS011;45703;50.898;6.054;2022-10-16T06:08:19;6.13;;;1.88;;
59824;SDS011;45703;50.898;6.054;2022-10-16T06:10:45;5.05;;;1.67;;
59824;SDS011;45703;50.898;6.054;2022-10-16T06:13:11;5.20;;;1.70;;
59824;SDS011;45703;50.898;6.054;2022-10-16T06:15:38;4.95;;;1.73;;
59824;SDS011;45703;50.898;6.054;2022-10-16T06:18:04;5.20;;;1.60;;
59824;SDS011;45703;50.898;6.054;2022-10-16T06:20:30;4.78;;;1.40;;
59824;SDS011;45703;50.898;6.054;2022-10-16T06:22:56;5.05;;;1.60;;
59824;SDS011;45703;50.898;6.054;2022-10-16T06:25:22;7.32;;;1.80;;
59824;SDS011;45703;50.898;6.054;2022-10-16T06:27:47;4.20;;;1.55;;
59824;SDS011;45703;50.898;6.054;2022-10-16T06:30:12;5.78;;;1.65;;
59824;SDS011;45703;50.898;6.054;2022-10-16T06:32:38;4.85;;;1.73;;
59824;SDS011;45703;50.898;6.054;2022-10-16T06:35:03;5.07;;;1.60;;
59824;SDS011;45703;50.898;6.054;2022-10-16T06:37:29;5.25;;;1.67;;
59824;SDS011;45703;50.898;6.054;2022-10-16T06:39:54;5.45;;;1.67;;
59824;SDS011;45703;50.898;6.054;2022-10-16T06:42:20;4.88;;;1.60;;
59824;SDS011;45703;50.898;6.054;2022-10-16T06:44:45;4.65;;;1.33;;
59824;SDS011;45703;50.898;6.054;2022-10-16T06:47:10;4.88;;;1.50;;
59824;SDS011;45703;50.898;6.054;2022-10-16T06:49:36;5.63;;;1.70;;
59824;SDS011;45703;50.898;6.054;2022-10-16T06:52:01;4.82;;;1.60;;
59824;SDS011;45703;50.898;6.054;2022-10-16T06:54:28;4.47;;;1.45;;
59824;SDS011;45703;50.898;6.054;2022-10-16T06:56:53;5.50;;;1.60;;
59824;SDS011;45703;50.898;6.054;2022-10-16T06:59:22;4.93;;;1.63;;
59824;SDS011;45703;50.898;6.054;2022-10-16T07:01:48;5.38;;;1.60;;
59824;SDS011;45703;50.898;6.054;2022-10-16T07:04:13;4.40;;;1.40;;
59824;SDS011;45703;50.898;6.054;2022-10-16T07:06:39;7.13;;;1.65;;
59824;SDS011;45703;50.898;6.054;2022-10-16T07:09:06;4.78;;;1.50;;
59824;SDS011;45703;50.898;6.054;2022-10-16T07:11:33;4.82;;;1.55;;
59824;SDS011;45703;50.898;6.054;2022-10-16T07:13:59;5.70;;;1.50;;
59824;SDS011;45703;50.898;6.054;2022-10-16T07:16:26;4.20;;;1.40;;
59824;SDS011;45703;50.898;6.054;2022-10-16T07:18:55;5.32;;;1.50;;
59824;SDS011;45703;50.898;6.054;2022-10-16T07:21:29;5.82;;;1.50;;
59824;SDS011;45703;50.898;6.054;2022-10-16T07:24:00;4.22;;;1.30;;
59824;SDS011;45703;50.898;6.054;2022-10-16T07:26:29;4.70;;;1.40;;
59824;SDS011;45703;50.898;6.054;2022-10-16T07:28:56;5.57;;;1.50;;
59824;SDS011;45703;50.898;6.054;2022-10-16T07:31:22;7.70;;;2.58;;
59824;SDS011;45703;50.898;6.054;2022-10-16T07:33:48;4.80;;;1.60;;
59824;SDS011;45703;50.898;6.054;2022-10-16T07:36:15;4.97;;;1.50;;
59824;SDS011;45703;50.898;6.054;2022-10-16T07:38:42;6.10;;;1.50;;
59824;SDS011;45703;50.898;6.054;2022-10-16T07:41:09;6.10;;;1.70;;
59824;SDS011;45703;50.898;6.054;2022-10-16T07:43:37;4.57;;;1.52;;
59824;SDS011;45703;50.898;6.054;2022-10-16T07:46:03;5.70;;;1.80;;
59824;SDS011;45703;50.898;6.054;2022-10-16T07:48:29;4.28;;;1.50;;
59824;SDS011;45703;50.898;6.054;2022-10-16T07:50:59;4.25;;;1.25;;
59824;SDS011;45703;50.898;6.054;2022-10-16T07:53:29;5.28;;;1.50;;
59824;SDS011;45703;50.898;6.054;2022-10-16T07:56:01;5.13;;;1.42;;
59824;SDS011;45703;50.898;6.054;2022-10-16T07:58:28;3.63;;;1.20;;
59824;SDS011;45703;50.898;6.054;2022-10-16T08:00:54;4.93;;;1.30;;
59824;SDS011;45703;50.898;6.054;2022-10-16T08:03:20;4.75;;;1.42;;
59824;SDS011;45703;50.898;6.054;2022-10-16T08:05:46;5.25;;;1.20;;
59824;SDS011;45703;50.898;6.054;2022-10-16T08:08:15;4.60;;;1.27;;
59824;SDS011;45703;50.898;6.054;2022-10-16T08:10:42;5.45;;;1.40;;
59824;SDS011;45703;50.898;6.054;2022-10-16T08:13:07;4.68;;;1.27;;
59824;SDS011;45703;50.898;6.054;2022-10-16T08:15:33;5.30;;;1.30;;
59824;SDS011;45703;50.898;6.054;2022-10-16T08:18:00;4.75;;;1.33;;
59824;SDS011;45703;50.898;6.054;2022-10-16T08:20:27;4.47;;;1.20;;
59824;SDS011;45703;50.898;6.054;2022-10-16T08:22:53;4.50;;;1.20;;
59824;SDS011;45703;50.898;6.054;2022-10-16T08:25:19;4.93;;;1.20;;
59824;SDS011;45703;50.898;6.054;2022-10-16T08:27:45;3.90;;;1.10;;
59824;SDS011;45703;50.898;6.054;2022-10-16T08:30:11;5.88;;;1.15;;
59824;SDS011;45703;50.898;6.054;2022-10-16T08:32:37;4.20;;;0.98;;
59824;SDS011;45703;50.898;6.054;2022-10-16T08:35:02;4.07;;;1.20;;
59824;SDS011;45703;50.898;6.054;2022-10-16T08:37:31;3.08;;;1.00;;
59824;SDS011;45703;50.898;6.054;2022-10-16T08:39:58;4.47;;;1.00;;
59824;SDS011;45703;50.898;6.054;2022-10-16T08:50:36;4.50;;;1.00;;
59824;SDS011;45703;50.898;6.054;2022-10-16T08:53:04;4.45;;;0.90;;
59824;SDS011;45703;50.898;6.054;2022-10-16T08:55:33;4.30;;;0.90;;
59824;SDS011;45703;50.898;6.054;2022-10-16T08:58:09;4.32;;;0.90;;
59824;SDS011;45703;50.898;6.054;2022-10-16T09:00:40;3.30;;;0.90;;
59824;SDS011;45703;50.898;6.054;2022-10-16T09:03:13;4.65;;;0.90;;
59824;SDS011;45703;50.898;6.054;2022-10-16T09:06:11;3.20;;;0.75;;
59824;SDS011;45703;50.898;6.054;2022-10-16T09:09:05;4.20;;;0.90;;
59824;SDS011;45703;50.898;6.054;2022-10-16T09:14:27;5.93;;;1.20;;
59824;SDS011;45703;50.898;6.054;2022-10-16T09:17:44;3.92;;;0.85;;
59824;SDS011;45703;50.898;6.054;2022-10-16T09:19:58;4.63;;;1.00;;
59824;SDS011;45703;50.898;6.054;2022-10-16T09:22:47;4.78;;;1.40;;
59824;SDS011;45703;50.898;6.054;2022-10-16T09:25:17;3.78;;;0.93;;
59824;SDS011;45703;50.898;6.054;2022-10-16T09:27:45;3.78;;;0.90;;
59824;SDS011;45703;50.898;6.054;2022-10-16T09:30:14;3.30;;;0.80;;
59824;SDS011;45703;50.898;6.054;2022-10-16T09:32:42;3.90;;;0.90;;
59824;SDS011;45703;50.898;6.054;2022-10-16T09:35:11;4.30;;;0.98;;
59824;SDS011;45703;50.898;6.054;2022-10-16T09:37:39;3.10;;;0.85;;
59824;SDS011;45703;50.898;6.054;2022-10-16T09:40:11;2.97;;;0.80;;
59824;SDS011;45703;50.898;6.054;2022-10-16T09:42:38;3.55;;;0.70;;
59824;SDS011;45703;50.898;6.054;2022-10-16T09:45:04;3.15;;;0.75;;
59824;SDS011;45703;50.898;6.054;2022-10-16T09:47:30;2.65;;;0.80;;
59824;SDS011;45703;50.898;6.054;2022-10-16T09:50:00;6.00;;;0.90;;
59824;SDS011;45703;50.898;6.054;2022-10-16T09:52:31;2.80;;;0.80;;
59824;SDS011;45703;50.898;6.054;2022-10-16T09:55:00;5.28;;;1.10;;
59824;SDS011;45703;50.898;6.054;2022-10-16T09:57:37;2.38;;;0.70;;
59824;SDS011;45703;50.898;6.054;2022-10-16T10:00:16;4.88;;;0.90;;
59824;SDS011;45703;50.898;6.054;2022-10-16T10:02:42;3.88;;;0.93;;
59824;SDS011;45703;50.898;6.054;2022-10-16T10:05:18;3.30;;;0.80;;
59824;SDS011;45703;50.898;6.054;2022-10-16T10:07:52;5.03;;;0.98;;
59824;SDS011;45703;50.898;6.054;2022-10-16T10:10:21;4.22;;;0.95;;
59824;SDS011;45703;50.898;6.054;2022-10-16T10:12:52;5.38;;;1.05;;
59824;SDS011;45703;50.898;6.054;2022-10-16T10:15:18;4.10;;;0.90;;
59824;SDS011;45703;50.898;6.054;2022-10-16T10:17:49;3.63;;;0.90;;
59824;SDS011;45703;50.898;6.054;2022-10-16T10:20:24;5.28;;;1.08;;
59824;SDS011;45703;50.898;6.054;2022-10-16T10:22:56;5.28;;;1.00;;
59824;SDS011;45703;50.898;6.054;2022-10-16T10:30:25;4.03;;;1.00;;
59824;SDS011;45703;50.898;6.054;2022-10-16T10:33:03;3.50;;;0.90;;
59824;SDS011;45703;50.898;6.054;2022-10-16T10:35:39;4.75;;;1.00;;
59824;SDS011;45703;50.898;6.054;2022-10-16T10:43:22;4.35;;;0.90;;
59824;SDS011;45703;50.898;6.054;2022-10-16T10:46:04;5.00;;;0.80;;
59824;SDS011;45703;50.898;6.054;2022-10-16T10:48:44;2.92;;;0.77;;
59824;SDS011;45703;50.898;6.054;2022-10-16T10:51:41;5.90;;;1.10;;
59824;SDS011;45703;50.898;6.054;2022-10-16T11:01:55;3.88;;;0.93;;
59824;SDS011;45703;50.898;6.054;2022-10-16T11:04:29;4.15;;;0.85;;
59824;SDS011;45703;50.898;6.054;2022-10-16T11:07:30;3.42;;;0.75;;
59824;SDS011;45703;50.898;6.054;2022-10-16T11:10:03;4.22;;;0.80;;
59824;SDS011;45703;50.898;6.054;2022-10-16T11:12:42;3.72;;;0.85;;
59824;SDS011;45703;50.898;6.054;2022-10-16T11:15:19;3.58;;;0.80;;
59824;SDS011;45703;50.898;6.054;2022-10-16T11:17:54;3.67;;;0.80;;
59824;SDS011;45703;50.898;6.054;2022-10-16T11:20:29;3.53;;;0.90;;
59824;SDS011;45703;50.898;6.054;2022-10-16T11:25:36;3.63;;;0.93;;
59824;SDS011;45703;50.898;6.054;2022-10-16T11:28:20;2.78;;;0.70;;
59824;SDS011;45703;50.898;6.054;2022-10-16T11:31:11;5.90;;;0.85;;
59824;SDS011;45703;50.898;6.054;2022-10-16T11:36:50;4.03;;;0.90;;
59824;SDS011;45703;50.898;6.054;2022-10-16T11:39:30;3.75;;;0.80;;
59824;SDS011;45703;50.898;6.054;2022-10-16T11:53:02;3.22;;;0.80;;
59824;SDS011;45703;50.898;6.054;2022-10-16T11:55:39;3.05;;;0.60;;
59824;SDS011;45703;50.898;6.054;2022-10-16T11:58:07;3.38;;;0.80;;
59824;SDS011;45703;50.898;6.054;2022-10-16T12:00:54;3.88;;;0.85;;
59824;SDS011;45703;50.898;6.054;2022-10-16T12:09:30;3.35;;;0.80;;
59824;SDS011;45703;50.898;6.054;2022-10-16T12:11:57;2.40;;;0.70;;
59824;SDS011;45703;50.898;6.054;2022-10-16T12:14:59;4.53;;;0.80;;
59824;SDS011;45703;50.898;6.054;2022-10-16T12:17:35;2.85;;;0.80;;
59824;SDS011;45703;50.898;6.054;2022-10-16T12:22:37;4.10;;;0.70;;
59824;SDS011;45703;50.898;6.054;2022-10-16T12:25:26;2.75;;;0.70;;
59824;SDS011;45703;50.898;6.054;2022-10-16T12:30:26;4.05;;;0.75;;
59824;SDS011;45703;50.898;6.054;2022-10-16T12:32:58;3.35;;;0.80;;
59824;SDS011;45703;50.898;6.054;2022-10-16T12:35:27;2.05;;;0.57;;
59824;SDS011;45703;50.898;6.054;2022-10-16T12:38:08;3.03;;;0.70;;
59824;SDS011;45703;50.898;6.054;2022-10-16T12:40:41;2.65;;;0.60;;
59824;SDS011;45703;50.898;6.054;2022-10-16T12:43:22;2.50;;;0.60;;
59824;SDS011;45703;50.898;6.054;2022-10-16T12:48:35;2.30;;;0.60;;
59824;SDS011;45703;50.898;6.054;2022-10-16T12:56:38;3.38;;;0.63;;
59824;SDS011;45703;50.898;6.054;2022-10-16T12:59:28;3.58;;;0.63;;
59824;SDS011;45703;50.898;6.054;2022-10-16T13:10:58;3.83;;;0.80;;
59824;SDS011;45703;50.898;6.054;2022-10-16T13:21:31;3.95;;;0.70;;
59824;SDS011;45703;50.898;6.054;2022-10-16T13:24:09;2.88;;;0.80;;
59824;SDS011;45703;50.898;6.054;2022-10-16T13:26:54;3.17;;;0.70;;
59824;SDS011;45703;50.898;6.054;2022-10-16T13:29:28;2.67;;;0.60;;
59824;SDS011;45703;50.898;6.054;2022-10-16T13:31:55;2.58;;;0.77;;
59824;SDS011;45703;50.898;6.054;2022-10-16T13:34:22;2.28;;;0.60;;
59824;SDS011;45703;50.898;6.054;2022-10-16T13:36:49;2.65;;;0.68;;
59824;SDS011;45703;50.898;6.054;2022-10-16T13:42:03;2.15;;;0.60;;
59824;SDS011;45703;50.898;6.054;2022-10-16T13:44:39;2.50;;;0.50;;
59824;SDS011;45703;50.898;6.054;2022-10-16T13:47:17;3.28;;;0.60;;
59824;SDS011;45703;50.898;6.054;2022-10-16T13:52:29;2.92;;;0.60;;
59824;SDS011;45703;50.898;6.054;2022-10-16T13:54:55;2.75;;;0.70;;
59824;SDS011;45703;50.898;6.054;2022-10-16T13:57:21;2.83;;;0.60;;
59824;SDS011;45703;50.898;6.054;2022-10-16T13:59:49;2.50;;;0.63;;
59824;SDS011;45703;50.898;6.054;2022-10-16T14:05:07;1.95;;;0.60;;
59824;SDS011;45703;50.898;6.054;2022-10-16T14:07:35;1.75;;;0.50;;
59824;SDS011;45703;50.898;6.054;2022-10-16T14:10:27;3.53;;;0.70;;
59824;SDS011;45703;50.898;6.054;2022-10-16T14:13:06;3.22;;;0.63;;
59824;SDS011;45703;50.898;6.054;2022-10-16T14:15:34;2.13;;;0.60;;
59824;SDS011;45703;50.898;6.054;2022-10-16T14:18:01;3.33;;;0.60;;
59824;SDS011;45703;50.898;6.054;2022-10-16T14:20:31;3.83;;;0.80;;
59824;SDS011;45703;50.898;6.054;2022-10-16T14:22:59;4.82;;;0.80;;
59824;SDS011;45703;50.898;6.054;2022-10-16T14:25:27;4.82;;;0.82;;
59824;SDS011;45703;50.898;6.054;2022-10-16T14:31:01;2.22;;;0.60;;
59824;SDS011;45703;50.898;6.054;2022-10-16T14:38:29;3.00;;;0.70;;
59824;SDS011;45703;50.898;6.054;2022-10-16T14:40:54;2.30;;;0.52;;
59824;SDS011;45703;50.898;6.054;2022-10-16T14:43:29;2.95;;;0.60;;
59824;SDS011;45703;50.898;6.054;2022-10-16T14:45:58;3.58;;;0.68;;
59824;SDS011;45703;50.898;6.054;2022-10-16T14:48:25;2.65;;;0.70;;
59824;SDS011;45703;50.898;6.054;2022-10-16T14:50:50;3.83;;;0.70;;
59824;SDS011;45703;50.898;6.054;2022-10-16T14:53:16;2.33;;;0.60;;
59824;SDS011;45703;50.898;6.054;2022-10-16T14:55:41;3.22;;;0.63;;
59824;SDS011;45703;50.898;6.054;2022-10-16T14:58:26;3.42;;;0.73;;
59824;SDS011;45703;50.898;6.054;2022-10-16T15:00:51;2.30;;;0.60;;
59824;SDS011;45703;50.898;6.054;2022-10-16T15:03:16;3.80;;;0.85;;
59824;SDS011;45703;50.898;6.054;2022-10-16T15:05:42;3.47;;;0.90;;
59824;SDS011;45703;50.898;6.054;2022-10-16T15:08:07;2.90;;;1.00;;
59824;SDS011;45703;50.898;6.054;2022-10-16T15:10:35;3.78;;;0.90;;
59824;SDS011;45703;50.898;6.054;2022-10-16T15:13:04;3.55;;;0.90;;
59824;SDS011;45703;50.898;6.054;2022-10-16T15:17:55;2.58;;;0.80;;
59824;SDS011;45703;50.898;6.054;2022-10-16T15:20:23;3.80;;;0.90;;
59824;SDS011;45703;50.898;6.054;2022-10-16T15:22:49;4.15;;;1.20;;
59824;SDS011;45703;50.898;6.054;2022-10-16T15:28:07;3.65;;;1.13;;
59824;SDS011;45703;50.898;6.054;2022-10-16T15:30:33;4.95;;;1.45;;
59824;SDS011;45703;50.898;6.054;2022-10-16T15:33:00;5.22;;;1.40;;
59824;SDS011;45703;50.898;6.054;2022-10-16T15:35:26;5.03;;;1.27;;
59824;SDS011;45703;50.898;6.054;2022-10-16T15:37:51;4.53;;;1.40;;
59824;SDS011;45703;50.898;6.054;2022-10-16T15:40:17;4.53;;;1.20;;
59824;SDS011;45703;50.898;6.054;2022-10-16T15:42:44;5.63;;;1.40;;
59824;SDS011;45703;50.898;6.054;2022-10-16T15:45:09;4.93;;;1.52;;
59824;SDS011;45703;50.898;6.054;2022-10-16T15:47:36;5.45;;;1.60;;
59824;SDS011;45703;50.898;6.054;2022-10-16T15:50:01;6.05;;;1.60;;
59824;SDS011;45703;50.898;6.054;2022-10-16T15:52:27;6.90;;;1.70;;
59824;SDS011;45703;50.898;6.054;2022-10-16T15:54:53;5.22;;;1.40;;
59824;SDS011;45703;50.898;6.054;2022-10-16T15:57:19;6.03;;;1.67;;
59824;SDS011;45703;50.898;6.054;2022-10-16T15:59:44;5.32;;;1.63;;
59824;SDS011;45703;50.898;6.054;2022-10-16T16:02:10;5.43;;;1.80;;
59824;SDS011;45703;50.898;6.054;2022-10-16T16:04:35;5.10;;;1.50;;
59824;SDS011;45703;50.898;6.054;2022-10-16T16:07:00;4.78;;;1.50;;
59824;SDS011;45703;50.898;6.054;2022-10-16T16:09:28;5.22;;;1.60;;
59824;SDS011;45703;50.898;6.054;2022-10-16T16:11:54;4.70;;;1.60;;
59824;SDS011;45703;50.898;6.054;2022-10-16T16:14:20;5.18;;;1.60;;
59824;SDS011;45703;50.898;6.054;2022-10-16T16:16:45;4.78;;;1.30;;
59824;SDS011;45703;50.898;6.054;2022-10-16T16:19:11;6.05;;;1.63;;
59824;SDS011;45703;50.898;6.054;2022-10-16T16:21:36;5.78;;;1.60;;
59824;SDS011;45703;50.898;6.054;2022-10-16T16:24:01;5.40;;;1.73;;
59824;SDS011;45703;50.898;6.054;2022-10-16T16:26:33;5.78;;;1.80;;
59824;SDS011;45703;50.898;6.054;2022-10-16T16:29:01;5.40;;;1.67;;
59824;SDS011;45703;50.898;6.054;2022-10-16T16:31:29;5.53;;;1.70;;
59824;SDS011;45703;50.898;6.054;2022-10-16T16:33:56;5.30;;;1.73;;
59824;SDS011;45703;50.898;6.054;2022-10-16T16:36:22;5.38;;;1.60;;
59824;SDS011;45703;50.898;6.054;2022-10-16T16:38:48;6.13;;;1.70;;
59824;SDS011;45703;50.898;6.054;2022-10-16T16:41:15;4.97;;;1.70;;
59824;SDS011;45703;50.898;6.054;2022-10-16T16:43:41;6.13;;;1.80;;
59824;SDS011;45703;50.898;6.054;2022-10-16T16:46:07;5.60;;;1.60;;
59824;SDS011;45703;50.898;6.054;2022-10-16T16:48:33;5.50;;;1.65;;
59824;SDS011;45703;50.898;6.054;2022-10-16T16:51:03;5.47;;;1.60;;